createdAt,value
2023-04-18T00:00:39.421Z,27.98
2023-04-18T00:01:39.498Z,27.95
2023-04-18T00:02:39.580Z,27.94
2023-04-18T00:03:39.809Z,27.91
2023-04-18T00:04:39.749Z,27.96
2023-04-18T00:05:39.682Z,27.96
2023-04-18T00:06:39.750Z,27.91
2023-04-18T00:07:39.787Z,27.94
2023-04-18T00:08:39.864Z,27.94
2023-04-18T00:09:39.952Z,27.87
2023-04-18T00:10:39.973Z,27.94
2023-04-18T00:11:40.020Z,27.90
2023-04-18T00:12:40.063Z,27.91
2023-04-18T00:13:40.131Z,27.87
2023-04-18T00:14:40.204Z,27.89
2023-04-18T00:15:40.245Z,27.90
2023-04-18T00:16:40.402Z,27.85
2023-04-18T00:17:40.457Z,27.89
2023-04-18T00:18:40.377Z,27.87
2023-04-18T00:19:40.414Z,27.84
2023-04-18T00:20:40.490Z,27.94
2023-04-18T00:21:40.523Z,27.87
2023-04-18T00:22:40.579Z,27.87
2023-04-18T00:23:40.632Z,27.87
2023-04-18T00:24:40.658Z,27.84
2023-04-18T00:25:40.729Z,27.88
2023-04-18T00:26:40.769Z,27.80
2023-04-18T00:27:40.809Z,27.81
2023-04-18T00:28:40.849Z,27.87
2023-04-18T00:29:40.915Z,27.88
2023-04-18T00:30:40.988Z,27.87
2023-04-18T00:31:41.045Z,27.84
2023-04-18T00:32:41.117Z,27.80
2023-04-18T00:33:41.188Z,27.85
2023-04-18T00:34:41.164Z,27.81
2023-04-18T00:35:41.224Z,27.81
2023-04-18T00:36:41.297Z,27.88
2023-04-18T00:37:41.328Z,27.79
2023-04-18T00:38:41.398Z,27.81
2023-04-18T00:39:41.486Z,27.84
2023-04-18T00:40:41.499Z,27.85
2023-04-18T00:41:41.544Z,27.81
2023-04-18T00:42:41.632Z,27.83
2023-04-18T00:43:41.640Z,27.80
2023-04-18T00:44:41.678Z,27.81
2023-04-18T00:45:41.718Z,27.84
2023-04-18T00:46:41.806Z,27.81
2023-04-18T00:47:41.841Z,27.80
2023-04-18T00:48:41.859Z,27.81
2023-04-18T00:49:41.978Z,27.78
2023-04-18T00:50:41.952Z,27.82
2023-04-18T00:51:41.999Z,27.84
2023-04-18T00:52:42.054Z,27.76
2023-04-18T00:53:42.104Z,27.78
2023-04-18T00:54:42.135Z,27.83
2023-04-18T00:55:42.223Z,27.78
2023-04-18T00:56:42.229Z,27.78
2023-04-18T00:57:42.321Z,27.76
2023-04-18T00:58:42.362Z,27.85
2023-04-18T00:59:42.451Z,27.81
2023-04-18T01:00:42.488Z,27.76
2023-04-18T01:01:42.556Z,27.84
2023-04-18T01:02:42.749Z,27.77
2023-04-18T01:03:42.961Z,27.84
2023-04-18T01:04:42.749Z,27.80
2023-04-18T01:05:42.721Z,27.80
2023-04-18T01:06:42.805Z,27.77
2023-04-18T01:07:42.866Z,27.77
2023-04-18T01:08:42.880Z,27.80
2023-04-18T01:09:42.988Z,27.80
2023-04-18T01:10:43.041Z,27.80
2023-04-18T01:11:43.077Z,27.78
2023-04-18T01:12:43.115Z,27.77
2023-04-18T01:13:43.157Z,27.78
2023-04-18T01:14:43.232Z,27.80
2023-04-18T01:15:43.313Z,27.77
2023-04-18T01:16:43.298Z,27.78
2023-04-18T01:17:43.456Z,27.74
2023-04-18T01:18:43.441Z,27.73
2023-04-18T01:19:43.489Z,27.74
2023-04-18T01:20:43.538Z,27.76
2023-04-18T01:21:43.581Z,27.77
2023-04-18T01:22:43.646Z,27.73
2023-04-18T01:23:43.716Z,27.77
2023-04-18T01:24:43.781Z,27.70
2023-04-18T01:25:43.844Z,27.74
2023-04-18T01:26:43.901Z,27.74
2023-04-18T01:27:43.978Z,27.74
2023-04-18T01:28:43.991Z,27.77
2023-04-18T01:29:44.066Z,27.78
2023-04-18T01:30:44.179Z,27.77
2023-04-18T01:31:44.267Z,27.76
2023-04-18T01:32:44.947Z,27.71
2023-04-18T01:33:44.273Z,27.71
2023-04-18T01:34:44.407Z,27.78
2023-04-18T01:35:44.396Z,27.73
2023-04-18T01:36:44.470Z,27.71
2023-04-18T01:37:44.487Z,27.77
2023-04-18T01:38:44.547Z,27.76
2023-04-18T01:39:44.612Z,27.73
2023-04-18T01:40:44.688Z,27.73
2023-04-18T01:41:44.740Z,27.74
2023-04-18T01:42:44.787Z,27.71
2023-04-18T01:43:44.858Z,27.70
2023-04-18T01:44:44.897Z,27.74
2023-04-18T01:45:44.960Z,27.73
2023-04-18T01:46:45.019Z,27.70
2023-04-18T01:47:45.044Z,27.71
2023-04-18T01:48:45.080Z,27.74
2023-04-18T01:49:45.154Z,27.70
2023-04-18T01:50:45.398Z,27.81
2023-04-18T01:51:45.263Z,27.67
2023-04-18T01:52:45.317Z,27.75
2023-04-18T01:53:45.422Z,27.73
2023-04-18T01:54:45.453Z,27.69
2023-04-18T01:55:45.496Z,27.71
2023-04-18T01:56:45.539Z,27.70
2023-04-18T01:57:45.608Z,27.71
2023-04-18T01:58:45.692Z,27.71
2023-04-18T01:59:45.724Z,27.67
2023-04-18T02:00:45.986Z,27.70
2023-04-18T02:01:45.950Z,27.71
2023-04-18T02:02:46.204Z,27.71
2023-04-18T02:03:46.175Z,27.71
2023-04-18T02:04:46.027Z,27.70
2023-04-18T02:05:46.119Z,27.69
2023-04-18T02:06:46.184Z,27.70
2023-04-18T02:07:46.238Z,27.71
2023-04-18T02:08:46.364Z,27.70
2023-04-18T02:09:46.328Z,27.71
2023-04-18T02:10:46.392Z,27.66
2023-04-18T02:11:46.441Z,27.74
2023-04-18T02:12:46.505Z,27.76
2023-04-18T02:13:46.569Z,27.67
2023-04-18T02:14:46.619Z,27.69
2023-04-18T02:15:46.703Z,27.67
2023-04-18T02:16:46.826Z,27.61
2023-04-18T02:17:46.817Z,27.70
2023-04-18T02:18:46.867Z,27.64
2023-04-18T02:19:46.933Z,27.70
2023-04-18T02:20:47.014Z,27.70
2023-04-18T02:21:47.006Z,27.69
2023-04-18T02:22:47.084Z,27.64
2023-04-18T02:23:47.151Z,27.70
2023-04-18T02:24:47.219Z,27.67
2023-04-18T02:25:47.245Z,27.64
2023-04-18T02:26:47.324Z,27.63
2023-04-18T02:27:47.379Z,27.61
2023-04-18T02:28:47.447Z,27.66
2023-04-18T02:29:47.919Z,27.69
2023-04-18T02:30:47.615Z,27.69
2023-04-18T02:31:47.714Z,27.64
2023-04-18T02:32:47.698Z,27.66
2023-04-18T02:33:47.731Z,27.64
2023-04-18T02:34:47.776Z,27.60
2023-04-18T02:35:47.851Z,27.64
2023-04-18T02:36:47.919Z,27.66
2023-04-18T02:37:47.968Z,27.67
2023-04-18T02:38:48.073Z,27.64
2023-04-18T02:39:48.143Z,27.63
2023-04-18T02:40:48.164Z,27.69
2023-04-18T02:41:48.198Z,27.66
2023-04-18T02:42:48.246Z,27.61
2023-04-18T02:43:48.300Z,27.63
2023-04-18T02:44:48.352Z,27.63
2023-04-18T02:45:48.451Z,27.63
2023-04-18T02:46:48.476Z,27.64
2023-04-18T02:47:55.572Z,27.63
2023-04-18T02:48:49.506Z,27.64
2023-04-18T02:49:48.519Z,27.61
2023-04-18T02:50:48.506Z,27.67
2023-04-18T02:51:48.498Z,27.60
2023-04-18T02:52:48.502Z,27.67
2023-04-18T02:53:48.493Z,27.66
2023-04-18T02:54:48.482Z,27.67
2023-04-18T02:55:48.479Z,27.64
2023-04-18T02:56:48.492Z,27.63
2023-04-18T02:57:48.487Z,27.64
2023-04-18T02:58:48.472Z,27.64
2023-04-18T02:59:48.523Z,27.67
2023-04-18T03:00:48.629Z,27.63
2023-04-18T03:01:48.720Z,27.67
2023-04-18T03:02:48.761Z,27.63
2023-04-18T03:03:48.700Z,27.64
2023-04-18T03:04:48.803Z,27.64
2023-04-18T03:05:48.795Z,27.63
2023-04-18T03:06:49.004Z,27.63
2023-04-18T03:07:48.879Z,27.66
2023-04-18T03:08:48.946Z,27.59
2023-04-18T03:09:49.013Z,27.63
2023-04-18T03:10:49.005Z,27.64
2023-04-18T03:11:49.091Z,27.61
2023-04-18T03:12:49.121Z,27.60
2023-04-18T03:13:49.095Z,27.61
2023-04-18T03:14:49.143Z,27.61
2023-04-18T03:15:49.209Z,27.59
2023-04-18T03:16:49.229Z,27.61
2023-04-18T03:17:49.269Z,27.67
2023-04-18T03:18:49.314Z,27.65
2023-04-18T03:19:49.337Z,27.57
2023-04-18T03:20:49.421Z,27.64
2023-04-18T03:21:49.382Z,27.60
2023-04-18T03:22:49.410Z,27.63
2023-04-18T03:23:49.457Z,27.58
2023-04-18T03:24:49.539Z,27.60
2023-04-18T03:25:49.609Z,27.57
2023-04-18T03:26:49.650Z,27.57
2023-04-18T03:27:49.680Z,27.57
2023-04-18T03:28:49.721Z,27.61
2023-04-18T03:29:49.969Z,27.64
2023-04-18T03:30:49.807Z,27.56
2023-04-18T03:31:49.866Z,27.58
2023-04-18T03:32:49.928Z,27.60
2023-04-18T03:33:49.967Z,27.57
2023-04-18T03:34:50.018Z,27.57
2023-04-18T03:35:50.049Z,27.54
2023-04-18T03:36:50.066Z,27.56
2023-04-18T03:37:50.090Z,27.54
2023-04-18T03:38:50.154Z,27.58
2023-04-18T03:39:50.184Z,27.57
2023-04-18T03:40:50.199Z,27.59
2023-04-18T03:41:50.273Z,27.57
2023-04-18T03:42:50.296Z,27.57
2023-04-18T03:43:50.264Z,27.52
2023-04-18T03:44:50.307Z,27.55
2023-04-18T03:45:50.360Z,27.53
2023-04-18T03:46:50.371Z,27.57
2023-04-18T03:47:50.506Z,27.56
2023-04-18T03:48:50.481Z,27.59
2023-04-18T03:49:50.573Z,27.54
2023-04-18T03:50:50.573Z,27.55
2023-04-18T03:51:50.652Z,27.54
2023-04-18T03:52:50.713Z,27.56
2023-04-18T03:53:50.757Z,27.56
2023-04-18T03:54:50.760Z,27.51
2023-04-18T03:55:50.825Z,27.55
2023-04-18T03:56:50.839Z,27.50
2023-04-18T03:57:50.917Z,27.56
2023-04-18T03:58:50.964Z,27.53
2023-04-18T03:59:51.008Z,27.53
2023-04-18T04:00:51.069Z,27.53
2023-04-18T04:01:51.111Z,27.52
2023-04-18T04:02:51.420Z,27.46
2023-04-18T04:03:51.341Z,27.50
2023-04-18T04:04:51.327Z,27.54
2023-04-18T04:05:51.382Z,27.50
2023-04-18T04:06:51.401Z,27.49
2023-04-18T04:07:51.485Z,27.53
2023-04-18T04:08:51.512Z,27.46
2023-04-18T04:09:51.550Z,27.53
2023-04-18T04:10:51.635Z,27.49
2023-04-18T04:11:51.702Z,27.50
2023-04-18T04:12:51.766Z,27.52
2023-04-18T04:13:51.785Z,27.47
2023-04-18T04:14:51.854Z,27.50
2023-04-18T04:15:51.893Z,27.52
2023-04-18T04:16:52.011Z,27.49
2023-04-18T04:17:52.033Z,27.44
2023-04-18T04:18:52.102Z,27.49
2023-04-18T04:19:52.226Z,27.47
2023-04-18T04:20:52.168Z,27.50
2023-04-18T04:21:52.224Z,27.47
2023-04-18T04:22:52.292Z,27.49
2023-04-18T04:23:52.345Z,27.46
2023-04-18T04:24:52.392Z,27.49
2023-04-18T04:25:52.466Z,27.52
2023-04-18T04:26:52.521Z,27.46
2023-04-18T04:27:52.559Z,27.49
2023-04-18T04:28:52.622Z,27.46
2023-04-18T04:29:52.720Z,27.50
2023-04-18T04:30:52.718Z,27.47
2023-04-18T04:31:52.859Z,27.46
2023-04-18T04:32:52.892Z,27.43
2023-04-18T04:33:52.916Z,27.49
2023-04-18T04:34:52.939Z,27.43
2023-04-18T04:35:52.984Z,27.47
2023-04-18T04:36:53.038Z,27.40
2023-04-18T04:37:53.094Z,27.46
2023-04-18T04:38:53.139Z,27.46
2023-04-18T04:39:53.195Z,27.46
2023-04-18T04:40:53.174Z,27.44
2023-04-18T04:41:53.218Z,27.47
2023-04-18T04:42:53.240Z,27.47
2023-04-18T04:43:53.316Z,27.44
2023-04-18T04:44:53.294Z,27.42
2023-04-18T04:45:53.408Z,27.44
2023-04-18T04:46:55.065Z,27.43
2023-04-18T04:47:53.427Z,27.37
2023-04-18T04:48:53.385Z,27.39
2023-04-18T04:49:53.434Z,27.41
2023-04-18T04:50:53.465Z,27.41
2023-04-18T04:51:53.507Z,27.43
2023-04-18T04:52:53.529Z,27.36
2023-04-18T04:53:53.550Z,27.39
2023-04-18T04:54:53.679Z,27.35
2023-04-18T04:55:53.684Z,27.36
2023-04-18T04:56:53.820Z,27.33
2023-04-18T04:57:53.799Z,27.32
2023-04-18T04:58:53.932Z,27.31
2023-04-18T04:59:53.921Z,27.32
2023-04-18T05:00:54.051Z,27.32
2023-04-18T05:01:54.113Z,27.29
2023-04-18T05:02:54.213Z,27.25
2023-04-18T05:03:54.206Z,27.28
2023-04-18T05:04:54.166Z,27.27
2023-04-18T05:05:54.203Z,27.19
2023-04-18T05:06:54.254Z,27.19
2023-04-18T05:07:54.474Z,27.16
2023-04-18T05:08:54.546Z,27.15
2023-04-18T05:09:54.432Z,27.14
2023-04-18T05:10:54.490Z,27.18
2023-04-18T05:11:54.523Z,27.16
2023-04-18T05:12:54.578Z,27.18
2023-04-18T05:13:54.615Z,27.18
2023-04-18T05:14:54.653Z,27.10
2023-04-18T05:15:54.721Z,27.11
2023-04-18T05:16:54.804Z,27.11
2023-04-18T05:17:54.903Z,27.14
2023-04-18T05:18:54.848Z,27.10
2023-04-18T05:19:54.908Z,27.12
2023-04-18T05:20:54.974Z,27.08
2023-04-18T05:21:55.012Z,27.08
2023-04-18T05:22:55.536Z,27.08
2023-04-18T05:23:55.101Z,27.10
2023-04-18T05:24:55.176Z,27.02
2023-04-18T05:25:55.246Z,27.06
2023-04-18T05:26:55.315Z,27.07
2023-04-18T05:27:55.476Z,27.04
2023-04-18T05:28:55.403Z,27.01
2023-04-18T05:29:55.429Z,27.04
2023-04-18T05:30:55.529Z,27.11
2023-04-18T05:31:55.620Z,27.12
2023-04-18T05:32:55.602Z,27.20
2023-04-18T05:33:55.789Z,30.20
2023-04-18T05:34:55.706Z,30.27
2023-04-18T05:35:55.877Z,30.82
2023-04-18T05:36:55.811Z,30.03
2023-04-18T05:37:55.844Z,29.45
2023-04-18T05:38:55.910Z,29.90
2023-04-18T05:39:57.833Z,29.87
2023-04-18T05:40:56.033Z,30.49
2023-04-18T05:41:56.533Z,30.31
2023-04-18T05:42:56.050Z,31.18
2023-04-18T05:44:04.700Z,30.56
2023-04-18T05:44:57.010Z,30.56
2023-04-18T05:45:57.735Z,30.31
2023-04-18T05:46:55.953Z,29.32
2023-04-18T05:47:56.033Z,29.35
2023-04-18T05:48:55.920Z,29.06
2023-04-18T05:49:56.022Z,28.97
2023-04-18T05:50:55.926Z,28.82
2023-04-18T05:51:55.900Z,28.90
2023-04-18T05:52:56.009Z,28.96
2023-04-18T05:53:56.008Z,28.89
2023-04-18T05:54:56.116Z,28.99
2023-04-18T05:55:56.194Z,28.82
2023-04-18T05:56:56.178Z,28.79
2023-04-18T05:57:56.282Z,28.80
2023-04-18T05:58:56.370Z,28.79
2023-04-18T05:59:56.382Z,28.72
2023-04-18T06:00:56.428Z,28.61
2023-04-18T06:01:56.469Z,28.68
2023-04-18T06:02:56.776Z,28.74
2023-04-18T06:03:56.832Z,28.71
2023-04-18T06:04:56.822Z,28.67
2023-04-18T06:05:56.682Z,28.54
2023-04-18T06:06:56.759Z,28.50
2023-04-18T06:07:56.863Z,28.33
2023-04-18T06:08:56.875Z,28.32
2023-04-18T06:09:56.920Z,28.43
2023-04-18T06:10:57.002Z,28.36
2023-04-18T06:11:57.053Z,28.24
2023-04-18T06:12:57.094Z,28.19
2023-04-18T06:13:57.172Z,28.14
2023-04-18T06:14:57.237Z,28.11
2023-04-18T06:15:57.327Z,28.11
2023-04-18T06:16:57.375Z,28.06
2023-04-18T06:17:57.483Z,28.05
2023-04-18T06:18:59.539Z,27.97
2023-04-18T06:19:57.492Z,27.94
2023-04-18T06:20:57.451Z,27.93
2023-04-18T06:21:57.442Z,27.87
2023-04-18T06:22:57.470Z,27.88
2023-04-18T06:23:57.444Z,27.84
2023-04-18T06:24:57.469Z,28.50
2023-04-18T06:25:57.480Z,27.91
2023-04-18T06:26:57.451Z,27.89
2023-04-18T06:27:57.470Z,27.81
2023-04-18T06:28:57.423Z,27.80
2023-04-18T06:29:57.431Z,27.80
2023-04-18T06:30:57.430Z,27.78
2023-04-18T06:31:57.467Z,27.71
2023-04-18T06:32:57.491Z,27.78
2023-04-18T06:33:57.379Z,27.73
2023-04-18T06:34:57.395Z,27.67
2023-04-18T06:35:57.364Z,27.78
2023-04-18T06:36:57.343Z,28.01
2023-04-18T06:37:57.335Z,28.05
2023-04-18T06:38:57.522Z,28.37
2023-04-18T06:39:57.548Z,28.28
2023-04-18T06:40:57.322Z,28.40
2023-04-18T06:41:57.373Z,28.94
2023-04-18T06:42:57.376Z,28.40
2023-04-18T06:44:02.877Z,28.30
2023-04-18T06:44:58.525Z,28.27
2023-04-18T06:45:57.310Z,28.23
2023-04-18T06:46:57.297Z,28.30
2023-04-18T06:47:57.330Z,28.33
2023-04-18T06:48:57.322Z,28.23
2023-04-18T06:49:57.665Z,28.23
2023-04-18T06:50:57.295Z,28.22
2023-04-18T06:51:57.237Z,28.19
2023-04-18T06:52:57.313Z,28.36
2023-04-18T06:53:57.392Z,28.67
2023-04-18T06:54:57.370Z,28.54
2023-04-18T06:55:57.435Z,28.48
2023-04-18T06:56:57.526Z,28.40
2023-04-18T06:57:57.580Z,28.33
2023-04-18T06:58:57.612Z,28.31
2023-04-18T06:59:57.674Z,28.35
2023-04-18T07:00:58.050Z,28.33
2023-04-18T07:01:57.823Z,28.39
2023-04-18T07:02:58.174Z,28.49
2023-04-18T07:03:58.192Z,28.50
2023-04-18T07:04:57.988Z,28.50
2023-04-18T07:05:58.520Z,28.43
2023-04-18T07:06:58.165Z,28.55
2023-04-18T07:07:58.136Z,28.53
2023-04-18T07:08:58.276Z,28.59
2023-04-18T07:09:58.280Z,28.63
2023-04-18T07:10:58.330Z,28.74
2023-04-18T07:11:58.369Z,28.68
2023-04-18T07:12:58.425Z,28.79
2023-04-18T07:13:58.614Z,28.71
2023-04-18T07:14:58.527Z,28.71
2023-04-18T07:15:58.578Z,28.76
2023-04-18T07:16:58.684Z,28.79
2023-04-18T07:17:58.708Z,28.91
2023-04-18T07:18:58.890Z,28.89
2023-04-18T07:19:58.817Z,28.85
2023-04-18T07:20:58.862Z,28.93
2023-04-18T07:21:58.983Z,28.83
2023-04-18T07:22:58.972Z,28.93
2023-04-18T07:23:59.051Z,28.93
2023-04-18T07:24:59.103Z,28.99
2023-04-18T07:26:00.070Z,28.87
2023-04-18T07:26:59.211Z,28.87
2023-04-18T07:27:59.248Z,29.00
2023-04-18T07:28:59.324Z,28.96
2023-04-18T07:29:59.364Z,29.07
2023-04-18T07:30:59.478Z,29.35
2023-04-18T07:31:59.509Z,29.35
2023-04-18T07:32:59.603Z,29.70
2023-04-18T07:34:00.098Z,32.43
2023-04-18T07:34:59.740Z,30.88
2023-04-18T07:35:59.712Z,33.29
2023-04-18T07:36:59.752Z,32.55
2023-04-18T07:38:00.538Z,32.42
2023-04-18T07:39:00.027Z,32.08
2023-04-18T07:39:59.915Z,31.86
2023-04-18T07:40:59.926Z,31.16
2023-04-18T07:42:00.884Z,30.88
2023-04-18T07:42:59.870Z,30.17
2023-04-18T07:43:59.867Z,30.15
2023-04-18T07:45:00.541Z,30.16
2023-04-18T07:45:59.910Z,30.10
2023-04-18T07:46:59.893Z,30.00
2023-04-18T07:47:59.948Z,29.89
2023-04-18T07:48:59.819Z,29.78
2023-04-18T07:49:59.806Z,29.66
2023-04-18T07:51:00.551Z,29.75
2023-04-18T07:51:59.907Z,29.64
2023-04-18T07:52:59.942Z,29.75
2023-04-18T07:54:00.014Z,29.70
2023-04-18T07:55:00.071Z,29.62
2023-04-18T07:56:00.595Z,29.60
2023-04-18T07:57:00.193Z,29.70
2023-04-18T07:58:00.208Z,29.70
2023-04-18T07:59:01.095Z,29.65
2023-04-18T08:00:02.107Z,29.74
2023-04-18T08:01:00.537Z,29.75
2023-04-18T08:02:00.458Z,29.71
2023-04-18T08:03:00.566Z,29.74
2023-04-18T08:04:00.654Z,29.75
2023-04-18T08:05:00.900Z,29.77
2023-04-18T08:06:01.063Z,29.82
2023-04-18T08:07:00.668Z,29.90
2023-04-18T08:08:00.756Z,29.88
2023-04-18T08:09:00.766Z,29.88
2023-04-18T08:10:00.836Z,29.81
2023-04-18T08:11:00.888Z,29.91
2023-04-18T08:12:00.915Z,29.89
2023-04-18T08:13:00.963Z,29.84
2023-04-18T08:14:00.992Z,29.90
2023-04-18T08:15:01.062Z,29.90
2023-04-18T08:16:01.177Z,29.85
2023-04-18T08:17:01.233Z,29.93
2023-04-18T08:18:01.320Z,29.98
2023-04-18T08:19:01.243Z,30.07
2023-04-18T08:20:01.345Z,29.94
2023-04-18T08:21:01.317Z,30.25
2023-04-18T08:22:01.377Z,30.37
2023-04-18T08:23:07.901Z,30.58
2023-04-18T08:24:02.425Z,30.43
2023-04-18T08:25:04.984Z,30.36
2023-04-18T08:26:01.563Z,30.96
2023-04-18T08:27:01.386Z,31.12
2023-04-18T08:28:01.402Z,31.19
2023-04-18T08:29:01.464Z,31.71
2023-04-18T08:30:01.467Z,31.53
2023-04-18T08:31:01.605Z,31.78
2023-04-18T08:32:01.497Z,31.97
2023-04-18T08:33:01.520Z,31.84
2023-04-18T08:34:02.148Z,32.08
2023-04-18T08:35:01.555Z,32.04
2023-04-18T08:36:01.364Z,32.01
2023-04-18T08:37:01.428Z,32.03
2023-04-18T08:38:01.473Z,31.96
2023-04-18T08:39:02.081Z,32.95
2023-04-18T08:40:01.572Z,33.12
2023-04-18T08:41:02.583Z,32.97
2023-04-18T08:42:01.597Z,32.61
2023-04-18T08:43:01.661Z,32.29
2023-04-18T08:44:01.755Z,32.18
2023-04-18T08:45:01.702Z,32.10
2023-04-18T08:46:02.180Z,31.94
2023-04-18T08:47:01.749Z,32.00
2023-04-18T08:48:04.002Z,31.86
2023-04-18T08:49:01.767Z,32.03
2023-04-18T08:50:01.769Z,32.02
2023-04-18T08:51:02.347Z,31.89
2023-04-18T08:52:01.757Z,31.84
2023-04-18T08:53:01.865Z,31.82
2023-04-18T08:54:01.850Z,31.64
2023-04-18T08:55:02.057Z,31.65
2023-04-18T08:56:02.053Z,31.74
2023-04-18T08:57:01.817Z,31.46
2023-04-18T08:58:01.828Z,31.31
2023-04-18T08:59:01.844Z,31.20
2023-04-18T09:00:02.169Z,31.37
2023-04-18T09:01:01.933Z,31.23
2023-04-18T09:02:02.024Z,31.11
2023-04-18T09:03:01.878Z,30.88
2023-04-18T09:04:02.022Z,31.06
2023-04-18T09:05:02.027Z,31.14
2023-04-18T09:06:01.886Z,31.05
2023-04-18T09:07:01.972Z,31.29
2023-04-18T09:08:01.924Z,31.04
2023-04-18T09:09:01.933Z,31.28
2023-04-18T09:10:02.082Z,31.50
2023-04-18T09:11:02.066Z,31.21
2023-04-18T09:12:01.980Z,31.00
2023-04-18T09:13:02.032Z,31.05
2023-04-18T09:14:02.047Z,30.98
2023-04-18T09:15:02.115Z,31.05
2023-04-18T09:16:02.036Z,30.89
2023-04-18T09:17:02.212Z,30.82
2023-04-18T09:18:02.156Z,30.83
2023-04-18T09:19:02.147Z,30.99
2023-04-18T09:20:02.634Z,30.84
2023-04-18T09:21:02.634Z,30.80
2023-04-18T09:22:02.210Z,30.89
2023-04-18T09:23:02.170Z,30.87
2023-04-18T09:24:02.269Z,30.90
2023-04-18T09:25:02.260Z,31.00
2023-04-18T09:26:02.204Z,31.07
2023-04-18T09:27:02.232Z,31.52
2023-04-18T09:28:02.303Z,32.42
2023-04-18T09:29:02.308Z,32.32
2023-04-18T09:30:02.343Z,32.67
2023-04-18T09:31:02.394Z,32.38
2023-04-18T09:32:02.373Z,33.09
2023-04-18T09:33:05.133Z,33.69
2023-04-18T09:34:02.418Z,33.24
2023-04-18T09:35:04.394Z,33.70
2023-04-18T09:36:02.478Z,33.91
2023-04-18T09:37:02.474Z,34.22
2023-04-18T09:38:02.478Z,33.58
2023-04-18T09:39:02.521Z,33.12
2023-04-18T09:40:02.610Z,32.73
2023-04-18T09:41:02.536Z,32.46
2023-04-18T09:42:02.572Z,32.15
2023-04-18T09:43:02.592Z,31.88
2023-04-18T09:44:02.603Z,31.55
2023-04-18T09:45:02.668Z,31.40
2023-04-18T09:46:02.752Z,31.16
2023-04-18T09:47:02.651Z,30.96
2023-04-18T09:48:02.713Z,30.68
2023-04-18T09:49:02.826Z,30.52
2023-04-18T09:50:02.743Z,29.85
2023-04-18T09:51:03.151Z,30.18
2023-04-18T09:52:02.789Z,30.66
2023-04-18T09:53:02.829Z,30.26
2023-04-18T09:54:02.854Z,30.24
2023-04-18T09:55:02.892Z,30.31
2023-04-18T09:56:03.061Z,30.31
2023-04-18T09:57:03.155Z,30.34
2023-04-18T09:58:02.998Z,30.46
2023-04-18T09:59:03.093Z,30.46
2023-04-18T10:00:03.230Z,30.51
2023-04-18T10:01:03.082Z,30.58
2023-04-18T10:02:03.208Z,30.62
2023-04-18T10:03:03.143Z,30.64
2023-04-18T10:04:03.194Z,30.75
2023-04-18T10:05:03.205Z,30.76
2023-04-18T10:06:03.233Z,30.70
2023-04-18T10:07:03.203Z,30.79
2023-04-18T10:08:03.412Z,30.85
2023-04-18T10:09:03.430Z,30.87
2023-04-18T10:10:03.293Z,30.87
2023-04-18T10:11:03.329Z,30.87
2023-04-18T10:12:03.310Z,30.88
2023-04-18T10:13:03.414Z,30.78
2023-04-18T10:14:03.433Z,30.75
2023-04-18T10:15:03.421Z,30.75
2023-04-18T10:16:03.477Z,30.79
2023-04-18T10:17:03.472Z,30.96
2023-04-18T10:18:05.719Z,30.97
2023-04-18T10:19:03.465Z,30.95
2023-04-18T10:20:03.427Z,30.95
2023-04-18T10:21:03.446Z,30.86
2023-04-18T10:22:03.436Z,30.75
2023-04-18T10:23:03.404Z,30.75
2023-04-18T10:24:03.435Z,30.69
2023-04-18T10:25:03.421Z,30.69
2023-04-18T10:26:03.410Z,31.13
2023-04-18T10:27:03.626Z,31.85
2023-04-18T10:28:03.369Z,32.02
2023-04-18T10:29:03.361Z,31.69
2023-04-18T10:30:03.390Z,32.09
2023-04-18T10:31:04.271Z,31.85
2023-04-18T10:32:03.624Z,31.78
2023-04-18T10:33:03.424Z,31.86
2023-04-18T10:34:05.783Z,31.86
2023-04-18T10:35:03.337Z,31.88
2023-04-18T10:36:03.334Z,31.64
2023-04-18T10:37:03.320Z,31.64
2023-04-18T10:38:03.306Z,31.53
2023-04-18T10:39:03.353Z,31.58
2023-04-18T10:40:03.312Z,31.38
2023-04-18T10:41:03.287Z,31.13
2023-04-18T10:42:03.299Z,30.86
2023-04-18T10:43:03.278Z,30.84
2023-04-18T10:44:03.266Z,30.71
2023-04-18T10:45:03.317Z,30.53
2023-04-18T10:46:03.257Z,30.35
2023-04-18T10:47:03.924Z,30.30
2023-04-18T10:48:03.302Z,30.08
2023-04-18T10:49:03.662Z,30.19
2023-04-18T10:51:03.225Z,29.92
2023-04-18T10:52:03.287Z,30.02
2023-04-18T10:53:03.214Z,29.89
2023-04-18T10:54:03.208Z,29.99
2023-04-18T10:55:03.209Z,29.92
2023-04-18T10:56:03.219Z,30.04
2023-04-18T10:57:03.280Z,30.03
2023-04-18T10:58:03.189Z,30.04
2023-04-18T10:59:03.216Z,30.08
2023-04-18T11:00:03.236Z,30.09
2023-04-18T11:01:03.282Z,30.04
2023-04-18T11:02:03.224Z,30.04
2023-04-18T11:03:03.427Z,30.05
2023-04-18T11:04:03.310Z,29.96
2023-04-18T11:05:03.351Z,29.88
2023-04-18T11:06:03.335Z,29.87
2023-04-18T11:07:03.284Z,29.87
2023-04-18T11:08:03.338Z,29.89
2023-04-18T11:09:03.300Z,29.85
2023-04-18T11:10:03.348Z,29.83
2023-04-18T11:11:03.376Z,29.70
2023-04-18T11:12:03.394Z,29.72
2023-04-18T11:13:03.361Z,29.71
2023-04-18T11:14:03.366Z,29.65
2023-04-18T11:15:03.432Z,29.66
2023-04-18T11:16:03.507Z,29.71
2023-04-18T11:17:03.392Z,30.64
2023-04-18T11:18:04.181Z,31.34
2023-04-18T11:19:03.435Z,31.51
2023-04-18T11:20:03.513Z,31.15
2023-04-18T11:21:03.488Z,30.63
2023-04-18T11:22:03.638Z,30.71
2023-04-18T11:23:03.455Z,30.85
2023-04-18T11:24:03.469Z,30.84
2023-04-18T11:25:03.478Z,30.87
2023-04-18T11:26:03.439Z,30.85
2023-04-18T11:27:03.636Z,30.86
2023-04-18T11:28:03.481Z,30.64
2023-04-18T11:29:03.501Z,30.55
2023-04-18T11:30:03.523Z,30.38
2023-04-18T11:31:03.514Z,30.25
2023-04-18T11:32:03.649Z,30.05
2023-04-18T11:33:03.600Z,30.02
2023-04-18T11:34:03.786Z,29.92
2023-04-18T11:35:03.734Z,29.71
2023-04-18T11:36:03.682Z,29.68
2023-04-18T11:37:03.844Z,29.62
2023-04-18T11:38:03.767Z,29.53
2023-04-18T11:39:03.799Z,29.57
2023-04-18T11:40:03.829Z,29.46
2023-04-18T11:41:03.857Z,29.59
2023-04-18T11:42:03.891Z,29.52
2023-04-18T11:43:03.826Z,29.50
2023-04-18T11:44:03.821Z,29.49
2023-04-18T11:45:03.863Z,29.42
2023-04-18T11:46:03.896Z,29.35
2023-04-18T11:47:03.835Z,29.26
2023-04-18T11:48:03.861Z,29.15
2023-04-18T11:49:03.838Z,29.16
2023-04-18T11:50:03.831Z,29.22
2023-04-18T11:51:03.835Z,29.23
2023-04-18T11:52:03.838Z,29.25
2023-04-18T11:53:03.905Z,29.18
2023-04-18T11:54:03.928Z,29.32
2023-04-18T11:55:03.828Z,29.36
2023-04-18T11:56:03.919Z,29.45
2023-04-18T11:57:03.879Z,29.36
2023-04-18T11:58:03.899Z,29.36
2023-04-18T11:59:03.877Z,29.45
2023-04-18T12:00:03.890Z,29.41
2023-04-18T12:01:03.859Z,29.39
2023-04-18T12:03:04.067Z,29.35
2023-04-18T12:04:04.139Z,29.35
2023-04-18T12:05:04.124Z,29.30
2023-04-18T12:06:04.063Z,29.29
2023-04-18T12:07:04.014Z,29.25
2023-04-18T12:08:04.015Z,29.12
2023-04-18T12:09:04.100Z,29.22
2023-04-18T12:10:04.108Z,29.15
2023-04-18T12:11:04.134Z,29.15
2023-04-18T12:12:04.136Z,29.16
2023-04-18T12:13:04.147Z,29.19
2023-04-18T12:14:04.284Z,29.17
2023-04-18T12:15:04.205Z,29.12
2023-04-18T12:16:04.330Z,29.06
2023-04-18T12:17:04.251Z,29.03
2023-04-18T12:18:04.288Z,29.28
2023-04-18T12:19:04.285Z,29.64
2023-04-18T12:20:04.405Z,30.18
2023-04-18T12:21:04.327Z,29.58
2023-04-18T12:22:04.671Z,28.95
2023-04-18T12:23:05.122Z,30.38
2023-04-18T12:24:04.373Z,29.97
2023-04-18T12:25:04.445Z,29.64
2023-04-18T12:26:04.437Z,29.52
2023-04-18T12:27:04.639Z,29.65
2023-04-18T12:28:04.502Z,29.71
2023-04-18T12:29:04.516Z,29.76
2023-04-18T12:30:04.564Z,29.75
2023-04-18T12:31:04.608Z,29.27
2023-04-18T12:32:04.673Z,29.30
2023-04-18T12:33:04.697Z,29.27
2023-04-18T12:34:04.558Z,29.18
2023-04-18T12:35:04.545Z,29.03
2023-04-18T12:36:04.552Z,28.67
2023-04-18T12:37:04.663Z,28.43
2023-04-18T12:38:04.561Z,28.42
2023-04-18T12:39:04.562Z,28.61
2023-04-18T12:40:04.562Z,28.88
2023-04-18T12:41:04.588Z,28.84
2023-04-18T12:42:04.667Z,28.90
2023-04-18T12:43:04.634Z,28.78
2023-04-18T12:44:04.599Z,28.68
2023-04-18T12:45:04.618Z,28.69
2023-04-18T12:46:04.631Z,28.60
2023-04-18T12:47:04.798Z,28.72
2023-04-18T12:48:04.685Z,28.70
2023-04-18T12:49:04.760Z,28.31
2023-04-18T12:50:04.653Z,28.14
2023-04-18T12:51:04.649Z,27.90
2023-04-18T12:52:04.687Z,27.86
2023-04-18T12:53:04.677Z,27.70
2023-04-18T12:54:04.734Z,27.04
2023-04-18T12:55:04.742Z,27.00